Time;durP1;ratioP1;P1;durP2;ratioP2;P2;SDS_P1;SDS_P2;PMS_P1;PMS_P2;Temp;Humidity;BMP_temperature;BMP_pressure;BME280_temperature;BME280_humidity;BME280_pressure;Samples;Min_cycle;Max_cycle;Signal;HPM_P1;HPM_P2
2022/04/22 00:01:26;;;;;;;7.10;5.25;;;8.30;99.90;;;;;;5052109;28;20087;-72
2022/04/22 00:03:52;;;;;;;6.63;5.20;;;8.20;99.90;;;;;;5051144;28;20025;-72
2022/04/22 00:06:18;;;;;;;9.23;5.55;;;8.20;99.90;;;;;;5052019;28;20108;-72
2022/04/22 00:08:43;;;;;;;7.32;5.18;;;8.10;99.90;;;;;;5051452;28;20098;-71
2022/04/22 00:13:55;;;;;;;5.75;4.43;;;8.20;99.90;;;;;;5051039;28;20199;-71
2022/04/22 00:16:21;;;;;;;5.63;4.03;;;8.10;99.90;;;;;;5051707;28;20053;-71
2022/04/22 00:18:47;;;;;;;6.40;4.32;;;8.00;99.90;;;;;;5050985;28;20450;-72
2022/04/22 00:21:13;;;;;;;6.18;4.78;;;7.90;99.90;;;;;;5051999;28;20107;-71
2022/04/22 00:23:39;;;;;;;6.55;4.82;;;7.90;99.90;;;;;;5049635;28;20116;-71
2022/04/22 00:26:05;;;;;;;7.47;5.05;;;7.80;99.90;;;;;;5051725;28;20029;-72
2022/04/22 00:28:30;;;;;;;8.15;5.60;;;7.80;99.90;;;;;;5034367;28;20032;-71
2022/04/22 00:30:56;;;;;;;6.82;5.25;;;7.70;99.90;;;;;;5032132;28;20049;-71
2022/04/22 00:33:22;;;;;;;6.78;5.38;;;7.70;99.90;;;;;;5031772;28;20378;-71
2022/04/22 00:35:48;;;;;;;7.35;5.78;;;7.60;99.90;;;;;;5036355;28;20485;-71
2022/04/22 00:38:14;;;;;;;7.13;5.60;;;7.60;99.90;;;;;;5051166;28;20503;-71
2022/04/22 00:40:40;;;;;;;10.48;5.57;;;7.50;99.90;;;;;;5050763;28;20037;-71
2022/04/22 00:43:19;;;;;;;8.80;6.10;;;7.50;99.90;;;;;;5052063;28;20170;-71
2022/04/22 00:45:45;;;;;;;7.97;6.07;;;7.50;99.90;;;;;;5035351;28;20026;-71
2022/04/22 00:48:12;;;;;;;7.85;5.80;;;7.50;99.90;;;;;;5035782;28;20276;-71
2022/04/22 00:50:39;;;;;;;9.07;6.10;;;7.50;99.90;;;;;;5036100;28;20030;-71
2022/04/22 00:53:06;;;;;;;10.05;6.50;;;7.40;99.90;;;;;;5035370;28;20061;-71
2022/04/22 00:55:33;;;;;;;7.78;6.15;;;7.50;99.90;;;;;;5054980;28;20032;-71
2022/04/22 00:57:59;;;;;;;8.18;6.20;;;7.40;99.90;;;;;;5048310;28;20028;-71
2022/04/22 01:00:25;;;;;;;8.02;6.25;;;7.40;99.90;;;;;;5039251;28;20121;-71
2022/04/22 01:02:51;;;;;;;10.18;6.20;;;7.40;99.90;;;;;;5036710;28;20037;-71
2022/04/22 01:10:45;;;;;;;14.02;6.63;;;7.40;99.90;;;;;;5054596;28;20040;-71
2022/04/22 01:13:12;;;;;;;8.88;6.30;;;7.30;99.90;;;;;;5055133;28;20040;-71
2022/04/22 01:15:37;;;;;;;7.80;6.60;;;7.30;99.90;;;;;;5053662;28;20447;-74
2022/04/22 01:18:04;;;;;;;9.68;7.10;;;7.20;99.90;;;;;;5054750;28;20086;-71
2022/04/22 01:20:30;;;;;;;9.48;6.65;;;7.20;99.90;;;;;;5055133;28;20045;-71
2022/04/22 01:22:56;;;;;;;8.35;6.50;;;7.20;99.90;;;;;;5054047;28;20035;-71
2022/04/22 01:25:21;;;;;;;9.55;7.13;;;7.20;99.90;;;;;;5054944;28;20033;-70
2022/04/22 01:27:51;;;;;;;9.88;7.50;;;7.20;99.90;;;;;;5054433;28;20351;-71
2022/04/22 01:30:23;;;;;;;10.23;7.85;;;7.30;99.90;;;;;;5054398;28;20028;-70
2022/04/22 01:32:51;;;;;;;12.10;8.40;;;7.30;99.90;;;;;;5053899;28;20032;-70
2022/04/22 01:35:20;;;;;;;13.57;8.93;;;7.30;99.90;;;;;;5055202;28;20466;-70
2022/04/22 01:37:46;;;;;;;10.40;7.93;;;7.30;99.90;;;;;;5054012;28;20049;-70
2022/04/22 01:40:12;;;;;;;10.38;7.82;;;7.40;99.90;;;;;;5054272;28;20434;-70
2022/04/22 01:42:38;;;;;;;9.18;7.43;;;7.40;99.90;;;;;;5054098;28;20112;-74
2022/04/22 01:45:05;;;;;;;11.95;7.85;;;7.30;99.90;;;;;;5054758;28;20525;-70
2022/04/22 01:47:31;;;;;;;9.55;7.45;;;7.30;99.90;;;;;;5054303;28;20028;-70
2022/04/22 01:49:57;;;;;;;11.27;7.82;;;7.20;99.90;;;;;;5053264;28;20132;-71
2022/04/22 01:52:24;;;;;;;9.05;7.10;;;7.20;99.90;;;;;;5054130;28;20482;-70
2022/04/22 01:54:54;;;;;;;9.95;7.68;;;7.20;99.90;;;;;;5053616;28;20056;-70
2022/04/22 01:57:23;;;;;;;11.82;8.02;;;7.10;99.90;;;;;;5054658;28;20059;-69
2022/04/22 01:59:50;;;;;;;9.90;8.43;;;7.00;99.90;;;;;;5052008;28;20040;-70
2022/04/22 02:02:16;;;;;;;11.70;8.07;;;7.00;99.90;;;;;;5054229;28;20032;-70
2022/04/22 02:04:42;;;;;;;13.85;8.65;;;6.90;99.90;;;;;;5053363;28;20037;-70
2022/04/22 02:07:08;;;;;;;12.90;8.93;;;6.90;99.90;;;;;;5054083;28;20463;-69
2022/04/22 02:09:34;;;;;;;12.07;8.38;;;7.00;99.90;;;;;;5053962;28;20029;-69
2022/04/22 02:12:00;;;;;;;10.50;7.78;;;6.90;99.90;;;;;;5053806;28;20028;-69
2022/04/22 02:14:26;;;;;;;14.32;9.05;;;7.00;99.90;;;;;;5053494;28;20383;-69
2022/04/22 02:16:55;;;;;;;11.77;8.70;;;7.00;99.90;;;;;;5053443;28;20025;-71
2022/04/22 02:19:20;;;;;;;10.18;7.80;;;7.00;99.90;;;;;;5053485;28;20033;-71
2022/04/22 02:21:46;;;;;;;12.02;9.02;;;6.90;99.90;;;;;;5052819;28;20068;-69
2022/04/22 02:24:12;;;;;;;13.52;9.55;;;6.80;99.90;;;;;;5053537;28;20041;-69
2022/04/22 02:29:23;;;;;;;12.45;8.63;;;6.70;99.90;;;;;;5053862;28;20036;-69
2022/04/22 02:31:53;;;;;;;15.75;9.30;;;6.60;99.90;;;;;;5052532;28;20033;-72
2022/04/22 02:34:22;;;;;;;;;;;6.60;99.90;;;;;;5052044;28;20053;-70
2022/04/22 02:36:48;;;;;;;13.27;9.10;;;6.50;99.90;;;;;;5052573;28;19905;-70
2022/04/22 02:39:15;;;;;;;14.20;9.90;;;6.40;99.90;;;;;;5052863;28;20041;-69
2022/04/22 02:47:10;;;;;;;17.23;10.27;;;6.20;99.90;;;;;;5052753;28;20060;-69
2022/04/22 02:49:35;;;;;;;13.73;10.10;;;6.10;99.90;;;;;;5052721;28;20060;-69
2022/04/22 02:52:01;;;;;;;15.77;9.68;;;6.00;99.90;;;;;;5051703;28;20072;-69
2022/04/22 02:54:30;;;;;;;12.93;9.70;;;6.00;99.90;;;;;;5052486;28;20021;-69
2022/04/22 02:56:56;;;;;;;14.45;9.80;;;5.90;99.90;;;;;;5052261;28;20051;-70
2022/04/22 02:59:22;;;;;;;17.38;9.73;;;5.90;99.90;;;;;;5052496;28;20021;-69
2022/04/22 03:01:48;;;;;;;14.15;10.10;;;5.80;99.90;;;;;;5051634;28;20112;-69
2022/04/22 03:04:15;;;;;;;14.75;9.68;;;5.80;99.90;;;;;;5051151;28;20178;-69
2022/04/22 03:06:41;;;;;;;18.05;10.57;;;5.80;99.90;;;;;;5052351;28;20044;-72
2022/04/22 03:09:07;;;;;;;17.65;10.30;;;5.80;99.90;;;;;;5052331;28;20025;-69
2022/04/22 03:11:34;;;;;;;18.40;10.68;;;5.70;99.90;;;;;;5051053;28;20390;-69
2022/04/22 03:14:06;;;;;;;15.98;11.27;;;5.60;99.90;;;;;;5035865;28;20029;-69
2022/04/22 03:16:32;;;;;;;15.23;10.75;;;5.60;99.90;;;;;;5052376;28;20063;-69
2022/04/22 03:18:58;;;;;;;17.15;10.70;;;5.60;99.90;;;;;;5051493;28;20033;-69
2022/04/22 03:21:24;;;;;;;15.05;10.40;;;5.60;99.90;;;;;;5051562;28;20048;-69
2022/04/22 03:23:50;;;;;;;15.23;10.65;;;5.60;99.90;;;;;;5051139;28;20040;-69
2022/04/22 03:26:16;;;;;;;15.98;10.82;;;5.50;99.90;;;;;;5051970;28;20058;-69
2022/04/22 03:28:42;;;;;;;14.63;10.68;;;5.50;99.90;;;;;;5051433;28;20410;-71
2022/04/22 03:31:07;;;;;;;15.73;11.07;;;5.40;99.90;;;;;;5050854;28;20033;-69
2022/04/22 03:33:33;;;;;;;14.02;10.40;;;5.40;99.90;;;;;;5051863;28;20036;-69
2022/04/22 03:35:59;;;;;;;19.15;11.40;;;5.40;99.90;;;;;;5051119;28;20021;-69
2022/04/22 03:38:25;;;;;;;16.10;11.57;;;5.40;99.90;;;;;;5052035;28;20025;-69
2022/04/22 03:40:52;;;;;;;16.58;11.68;;;5.30;99.90;;;;;;5050900;28;20041;-68
2022/04/22 03:43:19;;;;;;;13.80;10.13;;;5.30;99.90;;;;;;5051853;28;20056;-69
2022/04/22 03:45:45;;;;;;;16.55;10.70;;;5.30;99.90;;;;;;5051242;28;20031;-71
2022/04/22 03:48:13;;;;;;;14.40;9.75;;;5.20;99.90;;;;;;5050959;28;20103;-69
2022/04/22 03:50:39;;;;;;;16.10;11.52;;;5.20;99.90;;;;;;5050782;28;20033;-69
2022/04/22 03:53:06;;;;;;;16.98;11.50;;;5.20;99.90;;;;;;5034749;28;20056;-69
2022/04/22 03:55:32;;;;;;;19.95;12.35;;;5.10;99.90;;;;;;5051415;28;20375;-69
2022/04/22 03:58:10;;;;;;;17.60;12.00;;;5.10;99.90;;;;;;5050437;28;20029;-69
2022/04/22 04:00:42;;;;;;;18.92;13.43;;;5.10;99.90;;;;;;5051703;28;20041;-69
2022/04/22 04:03:10;;;;;;;20.67;12.82;;;5.10;99.90;;;;;;5049848;28;20041;-69
2022/04/22 04:05:37;;;;;;;18.38;12.63;;;5.10;99.90;;;;;;5051578;28;20036;-69
2022/04/22 04:08:03;;;;;;;20.45;13.77;;;5.10;99.90;;;;;;5050100;28;20166;-69
2022/04/22 04:16:00;;;;;;;19.98;13.95;;;5.00;99.90;;;;;;5050128;28;20024;-69
2022/04/22 04:18:30;;;;;;;20.73;14.75;;;4.90;99.90;;;;;;5051356;28;20466;-69
2022/04/22 04:23:41;;;;;;;22.30;14.75;;;4.90;99.90;;;;;;5051468;28;20040;-69
2022/04/22 04:26:07;;;;;;;20.77;14.23;;;4.90;99.90;;;;;;5050999;28;20605;-69
2022/04/22 04:28:37;;;;;;;25.60;17.10;;;4.90;99.90;;;;;;5051557;28;20025;-69
2022/04/22 04:31:03;;;;;;;21.75;15.20;;;4.90;99.90;;;;;;5050443;28;20033;-69
2022/04/22 04:33:30;;;;;;;22.17;14.95;;;4.90;99.90;;;;;;5051092;28;20159;-69
2022/04/22 04:35:56;;;;;;;21.88;15.65;;;4.90;99.90;;;;;;5050374;28;20025;-69
2022/04/22 04:38:22;;;;;;;22.45;15.23;;;4.90;99.90;;;;;;5050859;28;20476;-69
2022/04/22 04:40:48;;;;;;;21.90;14.98;;;4.90;99.90;;;;;;5050469;28;20175;-72
2022/04/22 04:43:14;;;;;;;22.40;15.43;;;4.90;99.90;;;;;;5050521;28;20082;-69
2022/04/22 04:45:40;;;;;;;22.83;15.05;;;4.90;99.90;;;;;;5050883;28;20033;-69
2022/04/22 04:48:06;;;;;;;23.70;16.45;;;4.90;99.90;;;;;;5050319;28;20036;-69
2022/04/22 04:50:32;;;;;;;25.08;17.25;;;4.90;99.90;;;;;;5049687;28;20033;-73
2022/04/22 04:52:57;;;;;;;28.35;17.75;;;5.00;99.90;;;;;;5054903;28;20441;-72
2022/04/22 04:55:25;;;;;;;27.85;18.58;;;5.00;99.90;;;;;;5052882;28;20136;-72
2022/04/22 04:57:51;;;;;;;29.20;19.23;;;5.00;99.90;;;;;;5050457;28;20110;-72
2022/04/22 05:00:18;;;;;;;25.67;18.08;;;5.10;99.90;;;;;;5049137;28;20064;-72
2022/04/22 05:02:45;;;;;;;26.42;17.88;;;5.20;99.90;;;;;;5050441;28;20025;-71
2022/04/22 05:05:12;;;;;;;26.80;17.33;;;5.20;99.90;;;;;;5050188;28;20021;-73
2022/04/22 05:07:53;;;;;;;27.17;17.48;;;5.30;99.90;;;;;;5050168;28;20032;-70
2022/04/22 05:10:19;;;;;;;24.40;16.58;;;5.30;99.90;;;;;;5039611;28;20025;-69
2022/04/22 05:12:46;;;;;;;25.42;17.95;;;5.40;99.90;;;;;;5050528;28;20040;-69
2022/04/22 05:15:12;;;;;;;28.70;19.02;;;5.50;99.90;;;;;;5049989;28;20690;-70
2022/04/22 05:17:39;;;;;;;26.33;17.27;;;5.50;99.90;;;;;;5050543;28;20021;-71
2022/04/22 05:20:06;;;;;;;26.67;17.27;;;5.60;99.90;;;;;;5052233;28;20033;-70
2022/04/22 05:22:31;;;;;;;33.22;22.10;;;5.70;99.90;;;;;;5070570;28;20029;-69
2022/04/22 05:24:57;;;;;;;26.23;18.10;;;5.70;99.90;;;;;;5052111;28;20418;-72
2022/04/22 05:27:22;;;;;;;27.13;18.40;;;5.80;99.90;;;;;;5050827;28;20493;-72
2022/04/22 05:32:38;;;;;;;29.52;18.92;;;6.00;99.90;;;;;;5054149;28;20059;-72
2022/04/22 05:35:08;;;;;;;26.65;18.77;;;6.00;99.90;;;;;;5053202;28;20394;-71
2022/04/22 05:37:43;;;;;;;;;;;6.20;99.90;;;;;;5054535;28;20021;-71
2022/04/22 05:40:10;;;;;;;29.30;18.08;;;6.20;99.90;;;;;;5052909;28;19921;-71
2022/04/22 05:42:38;;;;;;;32.47;18.92;;;6.30;99.90;;;;;;5054168;28;20339;-69
2022/04/22 05:45:06;;;;;;;27.27;19.67;;;6.40;99.90;;;;;;5052940;28;20048;-69
2022/04/22 05:47:32;;;;;;;28.77;19.13;;;6.50;99.90;;;;;;5052840;28;20025;-68
2022/04/22 05:49:58;;;;;;;26.15;17.98;;;6.60;99.90;;;;;;5053593;28;20036;-69
2022/04/22 05:52:24;;;;;;;30.35;20.73;;;6.70;99.90;;;;;;5052723;28;20122;-68
2022/04/22 05:54:49;;;;;;;30.17;20.48;;;6.80;99.90;;;;;;5053553;28;20037;-68
2022/04/22 05:57:15;;;;;;;32.75;22.65;;;7.00;99.90;;;;;;5052729;28;20034;-69
2022/04/22 05:59:41;;;;;;;34.35;22.05;;;7.30;99.90;;;;;;5053768;28;20025;-69
2022/04/22 06:02:07;;;;;;;31.55;21.55;;;7.40;99.90;;;;;;5052779;28;20090;-68
2022/04/22 06:04:33;;;;;;;32.25;23.08;;;7.40;99.90;;;;;;5053254;28;20103;-69
2022/04/22 06:06:59;;;;;;;29.67;20.67;;;7.40;99.90;;;;;;5051854;28;20444;-67
2022/04/22 06:12:09;;;;;;;30.23;21.27;;;7.50;99.90;;;;;;5052911;28;20114;-64
2022/04/22 06:14:35;;;;;;;31.83;23.08;;;7.70;99.90;;;;;;5053733;28;20029;-66
2022/04/22 06:17:01;;;;;;;29.27;20.80;;;7.80;99.90;;;;;;5053917;28;20554;-64
2022/04/22 06:19:27;;;;;;;38.30;24.00;;;7.90;99.90;;;;;;5053323;28;20051;-66
2022/04/22 06:21:54;;;;;;;33.50;21.30;;;8.00;99.90;;;;;;5053521;28;20471;-64
2022/04/22 06:24:19;;;;;;;33.08;22.48;;;8.10;99.90;;;;;;5052801;28;20036;-66
2022/04/22 06:26:45;;;;;;;27.83;21.45;;;8.10;99.90;;;;;;5053839;28;20033;-66
2022/04/22 06:29:11;;;;;;;31.92;20.98;;;8.20;99.90;;;;;;5053529;28;20142;-66
2022/04/22 06:31:37;;;;;;;33.50;22.42;;;8.30;99.90;;;;;;5054120;28;20036;-66
2022/04/22 06:34:03;;;;;;;34.58;22.88;;;8.40;99.90;;;;;;5053404;28;20037;-68
2022/04/22 06:36:30;;;;;;;29.25;20.60;;;8.50;99.90;;;;;;5054057;28;20036;-66
2022/04/22 06:38:59;;;;;;;28.70;20.75;;;8.50;99.90;;;;;;5053006;28;20416;-68
2022/04/22 06:46:55;;;;;;;29.25;20.77;;;8.80;99.90;;;;;;5052137;28;20496;-65
2022/04/22 06:49:23;;;;;;;31.90;20.40;;;8.90;99.90;;;;;;5053361;28;20029;-66
2022/04/22 06:51:50;;;;;;;28.35;21.33;;;8.90;99.90;;;;;;5057528;28;20045;-65
2022/04/22 06:54:16;;;;;;;29.13;20.90;;;9.00;99.90;;;;;;5052462;28;20772;-64
2022/04/22 06:56:42;;;;;;;30.48;22.10;;;9.00;99.90;;;;;;5053219;28;20199;-64
2022/04/22 06:59:09;;;;;;;27.23;21.40;;;9.20;99.90;;;;;;5051925;28;20029;-65
2022/04/22 07:01:36;;;;;;;31.13;22.40;;;9.30;99.90;;;;;;5051642;28;20037;-64
2022/04/22 07:04:03;;;;;;;32.03;22.38;;;9.30;99.90;;;;;;5050491;28;20064;-63
2022/04/22 07:06:29;;;;;;;33.83;21.25;;;9.40;99.90;;;;;;5053102;28;20029;-64
2022/04/22 07:09:07;;;;;;;29.83;21.30;;;9.40;99.90;;;;;;5129819;27;20204;-65
2022/04/22 07:11:35;;;;;;;29.15;21.00;;;9.50;99.90;;;;;;5089598;28;20115;-65
2022/04/22 07:14:01;;;;;;;32.33;22.13;;;9.50;99.90;;;;;;5087832;28;20036;-66
2022/04/22 07:16:27;;;;;;;32.38;22.92;;;9.60;99.90;;;;;;5088414;28;20036;-65
2022/04/22 07:18:53;;;;;;;32.17;22.90;;;9.60;99.90;;;;;;5089177;28;20052;-64
2022/04/22 07:21:20;;;;;;;30.73;23.02;;;9.80;99.90;;;;;;5120946;28;20165;-68
2022/04/22 07:23:46;;;;;;;29.00;21.42;;;9.80;99.90;;;;;;5088491;28;20028;-72
2022/04/22 07:26:12;;;;;;;29.48;21.27;;;9.80;99.90;;;;;;5089513;28;20132;-73
2022/04/22 07:28:39;;;;;;;33.65;22.63;;;9.90;99.90;;;;;;5123265;28;20107;-72
2022/04/22 07:31:05;;;;;;;32.83;23.05;;;9.90;99.90;;;;;;5087261;28;20067;-73
2022/04/22 07:33:32;;;;;;;30.52;22.38;;;9.90;99.90;;;;;;5088612;28;20123;-72
2022/04/22 07:35:57;;;;;;;31.00;22.58;;;10.00;99.90;;;;;;5088302;28;20035;-73
2022/04/22 07:38:24;;;;;;;32.15;22.77;;;9.90;99.90;;;;;;5088063;28;20107;-70
2022/04/22 07:40:51;;;;;;;34.25;22.90;;;10.00;99.90;;;;;;5088647;28;20470;-74
2022/04/22 07:48:52;;;;;;;30.33;22.38;;;10.40;99.90;;;;;;5091758;28;20058;-75
2022/04/22 07:51:18;;;;;;;29.25;21.42;;;10.50;99.90;;;;;;5087454;28;20032;-72
2022/04/22 07:53:44;;;;;;;30.05;21.95;;;10.60;99.90;;;;;;5088405;28;20032;-69
2022/04/22 07:56:10;;;;;;;30.15;21.33;;;10.60;99.90;;;;;;5087586;28;20051;-69
2022/04/22 07:58:36;;;;;;;30.88;22.60;;;10.70;99.90;;;;;;5087232;28;20115;-69
2022/04/22 08:01:02;;;;;;;29.38;21.30;;;10.90;99.90;;;;;;5087623;28;20036;-68
2022/04/22 08:03:28;;;;;;;29.65;20.83;;;11.00;99.90;;;;;;5087832;28;20107;-72
2022/04/22 08:05:54;;;;;;;32.17;21.80;;;11.10;99.90;;;;;;5088263;28;20029;-72
2022/04/22 08:08:20;;;;;;;33.20;21.13;;;11.10;99.90;;;;;;5086714;28;20048;-72
2022/04/22 08:10:46;;;;;;;30.65;21.88;;;11.10;99.90;;;;;;5089094;28;20032;-72
2022/04/22 08:13:12;;;;;;;34.20;21.63;;;11.20;99.90;;;;;;5087471;28;20031;-72
2022/04/22 08:15:37;;;;;;;30.25;20.80;;;11.40;99.90;;;;;;5087815;28;20028;-73
2022/04/22 08:18:04;;;;;;;26.50;20.70;;;11.50;99.90;;;;;;5087912;28;20036;-72
2022/04/22 08:20:32;;;;;;;32.55;23.10;;;11.60;99.90;;;;;;5073841;28;20367;-72
2022/04/22 08:22:59;;;;;;;30.45;19.60;;;11.70;99.90;;;;;;5074553;28;20044;-71
2022/04/22 08:25:24;;;;;;;29.95;20.38;;;11.80;99.90;;;;;;5073533;28;20085;-73
2022/04/22 08:27:51;;;;;;;26.55;20.45;;;11.80;99.90;;;;;;5074380;28;20028;-72
2022/04/22 08:30:17;;;;;;;25.27;19.60;;;11.90;99.90;;;;;;5073241;28;20024;-72
2022/04/22 08:32:43;;;;;;;30.77;20.63;;;11.90;99.90;;;;;;5074316;28;20150;-71
2022/04/22 08:35:09;;;;;;;32.67;20.45;;;12.00;99.90;;;;;;5073423;28;20112;-71
2022/04/22 08:37:37;;;;;;;26.25;20.38;;;12.10;99.90;;;;;;5076387;28;20427;-73
2022/04/22 08:40:05;;;;;;;27.95;20.50;;;12.10;99.90;;;;;;5106017;28;20124;-69
2022/04/22 08:42:38;;;;;;;24.70;19.60;;;12.10;99.90;;;;;;5073946;28;20401;-70
2022/04/22 08:45:08;;;;;;;28.40;20.52;;;12.20;99.90;;;;;;5072185;28;20098;-70
2022/04/22 08:50:19;;;;;;;27.58;20.77;;;12.50;99.90;;;;;;5072937;28;20178;-66
2022/04/22 08:53:03;;;;;;;25.77;20.17;;;12.60;99.90;;;;;;5073876;28;20020;-70
2022/04/22 08:55:30;;;;;;;28.13;20.13;;;12.50;99.90;;;;;;5073127;28;20028;-69
2022/04/22 08:57:57;;;;;;;27.85;19.85;;;12.50;99.90;;;;;;5073208;28;20426;-69
2022/04/22 09:00:26;;;;;;;25.35;18.98;;;12.60;99.90;;;;;;5056741;28;20025;-69
2022/04/22 09:02:56;;;;;;;25.85;19.05;;;12.80;99.90;;;;;;5073954;28;20051;-70
2022/04/22 09:05:22;;;;;;;22.45;18.55;;;12.90;99.80;;;;;;5072709;28;20040;-70
2022/04/22 09:07:50;;;;;;;24.38;18.42;;;12.90;99.60;;;;;;5073369;28;20529;-72
2022/04/22 09:10:16;;;;;;;21.55;17.48;;;13.10;99.90;;;;;;5105299;28;20032;-72
2022/04/22 09:12:56;;;;;;;23.35;18.50;;;13.40;99.90;;;;;;5073630;28;20020;-68
2022/04/22 09:15:27;;;;;;;22.35;17.80;;;13.40;99.90;;;;;;5054336;28;20112;-72
2022/04/22 09:18:00;;;;;;;23.60;18.73;;;13.40;99.90;;;;;;5073958;28;20036;-72
2022/04/22 09:20:33;;;;;;;24.33;17.77;;;13.40;97.60;;;;;;5072136;28;20035;-70
2022/04/22 09:22:59;;;;;;;30.17;17.52;;;13.50;96.90;;;;;;5073003;28;21941;-69
2022/04/22 09:25:25;;;;;;;22.67;18.05;;;13.70;97.70;;;;;;5072357;28;20606;-71
2022/04/22 09:27:51;;;;;;;23.92;17.17;;;14.00;99.90;;;;;;5072980;28;20043;-74
2022/04/22 09:30:17;;;;;;;24.52;17.48;;;14.10;97.00;;;;;;5071045;28;20032;-73
2022/04/22 09:32:46;;;;;;;22.45;17.75;;;14.30;99.10;;;;;;5071514;28;20347;-71
2022/04/22 09:35:15;;;;;;;22.83;18.30;;;14.20;99.90;;;;;;5070907;28;20028;-69
2022/04/22 09:43:22;;;;;;;33.65;17.05;;;14.10;94.40;;;;;;5057334;28;20449;-71
2022/04/22 09:45:53;;;;;;;22.58;16.85;;;13.90;95.30;;;;;;5072924;28;20089;-71
2022/04/22 09:48:20;;;;;;;24.42;16.90;;;14.00;95.10;;;;;;5071573;28;20500;-70
2022/04/22 09:50:56;;;;;;;23.92;17.35;;;14.10;95.00;;;;;;5072474;28;20035;-71
2022/04/22 09:53:33;;;;;;;24.30;16.35;;;14.20;94.70;;;;;;5072012;28;20032;-71
2022/04/22 09:56:10;;;;;;;19.00;16.25;;;14.30;94.30;;;;;;5072734;28;20036;-70
2022/04/22 09:58:37;;;;;;;19.30;15.13;;;14.60;92.80;;;;;;5071988;28;20028;-70
2022/04/22 10:01:06;;;;;;;22.25;16.70;;;14.70;93.60;;;;;;5072352;28;20027;-71
2022/04/22 10:03:39;;;;;;;18.80;15.60;;;14.80;92.20;;;;;;5072714;28;20025;-70
2022/04/22 10:06:06;;;;;;;22.83;15.25;;;14.80;92.30;;;;;;5072519;28;20039;-71
2022/04/22 10:08:37;;;;;;;18.83;15.25;;;14.90;92.30;;;;;;5071486;28;20617;-73
2022/04/22 10:11:05;;;;;;;20.45;15.43;;;15.00;92.20;;;;;;5072816;28;20082;-73
2022/04/22 10:13:33;;;;;;;23.10;16.77;;;15.30;91.90;;;;;;5071774;28;20244;-73
2022/04/22 10:16:02;;;;;;;16.85;14.77;;;15.30;90.30;;;;;;5072117;28;20020;-71
2022/04/22 10:18:29;;;;;;;44.03;15.02;;;15.50;90.20;;;;;;5070769;28;20152;-73
2022/04/22 10:20:55;;;;;;;64.30;17.58;;;15.60;90.50;;;;;;5071798;28;20024;-68
2022/04/22 10:23:22;;;;;;;20.90;14.80;;;15.90;89.80;;;;;;5071324;28;20036;-69
2022/04/22 10:25:48;;;;;;;21.05;14.85;;;16.10;86.80;;;;;;5072167;28;20048;-68
2022/04/22 10:28:16;;;;;;;17.48;14.20;;;16.10;86.80;;;;;;5103733;28;20056;-69
2022/04/22 10:30:43;;;;;;;18.70;15.77;;;15.90;86.30;;;;;;5071352;28;20119;-70
2022/04/22 10:33:10;;;;;;;16.88;14.07;;;15.70;87.00;;;;;;5071210;28;20029;-69
2022/04/22 10:35:45;;;;;;;17.35;13.98;;;15.70;87.60;;;;;;5071710;28;20051;-71
2022/04/22 10:38:33;;;;;;;17.25;14.55;;;15.80;86.80;;;;;;5071549;28;20040;-69
2022/04/22 10:41:05;;;;;;;19.10;15.20;;;15.60;86.00;;;;;;5069405;28;20035;-69
2022/04/22 10:43:31;;;;;;;16.85;14.10;;;15.70;85.70;;;;;;5072664;28;20032;-69
2022/04/22 10:49:12;;;;;;;16.08;13.10;;;16.00;85.40;;;;;;5070967;28;20120;-69
2022/04/22 10:51:58;;;;;;;17.15;13.82;;;16.30;83.10;;;;;;5071978;28;20040;-68
2022/04/22 10:54:52;;;;;;;18.40;13.93;;;16.70;83.10;;;;;;5071038;28;20025;-71
2022/04/22 10:57:23;;;;;;;16.88;13.55;;;17.10;80.00;;;;;;5070323;28;20122;-70
2022/04/22 11:00:04;;;;;;;15.05;13.20;;;17.30;80.10;;;;;;5071533;28;20377;-70
2022/04/22 11:02:31;;;;;;;18.42;13.90;;;17.10;79.30;;;;;;5051643;28;20040;-70
2022/04/22 11:05:18;;;;;;;20.00;14.25;;;16.90;78.80;;;;;;5071162;28;20028;-70
2022/04/22 11:08:15;;;;;;;15.55;13.70;;;16.70;79.30;;;;;;5071708;28;20052;-71
2022/04/22 11:10:47;;;;;;;19.08;13.63;;;16.70;81.50;;;;;;5070581;28;20096;-70
2022/04/22 11:13:46;;;;;;;18.05;14.48;;;16.60;81.20;;;;;;5071248;28;20064;-71
2022/04/22 11:16:33;;;;;;;17.30;13.40;;;16.60;79.80;;;;;;5035563;28;20044;-71
2022/04/22 11:19:33;;;;;;;25.25;15.27;;;16.60;80.60;;;;;;5070511;28;20032;-71
2022/04/22 11:21:58;;;;;;;15.18;13.55;;;16.70;80.00;;;;;;5071927;28;20024;-71
2022/04/22 11:24:29;;;;;;;17.17;13.88;;;16.80;79.20;;;;;;5070922;28;20090;-71
2022/04/22 11:27:10;;;;;;;19.33;13.90;;;16.80;78.30;;;;;;5072184;28;20055;-72
2022/04/22 11:29:36;;;;;;;15.38;12.93;;;16.90;77.60;;;;;;5071071;28;20028;-72
2022/04/22 11:32:11;;;;;;;70.32;12.95;;;17.10;77.30;;;;;;5070950;28;20029;-74
2022/04/22 11:34:46;;;;;;;15.98;11.32;;;;;;;;;;5070923;28;20063;-73
2022/04/22 11:37:20;;;;;;;17.55;12.68;;;18.30;74.20;;;;;;5071053;28;20034;-75
2022/04/22 11:39:50;;;;;;;21.13;13.23;;;18.40;74.20;;;;;;5071423;28;20025;-72
2022/04/22 11:42:19;;;;;;;25.13;10.85;;;18.30;73.60;;;;;;5072014;28;20029;-79
2022/04/22 11:45:00;;;;;;;15.02;11.05;;;;;;;;;;5070474;28;20033;-73
2022/04/22 11:47:26;;;;;;;17.95;12.25;;;18.60;73.00;;;;;;5053717;28;20041;-71
2022/04/22 11:49:52;;;;;;;14.55;12.30;;;18.80;72.10;;;;;;5071551;28;20485;-69
2022/04/22 11:52:20;;;;;;;15.30;12.15;;;19.00;70.90;;;;;;5073077;28;20056;-72
2022/04/22 11:54:47;;;;;;;15.35;12.43;;;18.90;71.00;;;;;;5073096;28;20474;-69
2022/04/22 11:57:16;;;;;;;16.13;13.10;;;18.50;70.00;;;;;;5069824;28;20021;-69
2022/04/22 12:05:31;;;;;;;13.98;10.70;;;18.70;69.50;;;;;;5075733;28;20028;-69
2022/04/22 12:05:32;;;;;;;14.27;12.13;;;19.10;68.30;;;;;;5073902;28;20490;-69
2022/04/22 12:08:07;;;;;;;15.60;12.73;;;19.00;68.80;;;;;;5074326;28;20503;-69
2022/04/22 12:10:34;;;;;;;15.38;13.75;;;19.10;68.60;;;;;;5074002;28;20032;-69
2022/04/22 12:13:04;;;;;;;12.45;11.00;;;19.10;68.10;;;;;;5073913;28;20028;-68
2022/04/22 12:15:30;;;;;;;15.18;11.88;;;19.30;68.60;;;;;;5073647;28;20032;-68
2022/04/22 12:17:57;;;;;;;17.30;12.40;;;19.50;68.20;;;;;;5074577;28;20052;-68
2022/04/22 12:20:27;;;;;;;14.02;11.15;;;19.30;68.00;;;;;;5073981;28;20104;-68
2022/04/22 12:22:55;;;;;;;13.52;12.05;;;19.00;67.70;;;;;;5074522;28;20029;-69
2022/04/22 12:25:22;;;;;;;13.40;11.73;;;18.90;67.70;;;;;;5073476;28;20069;-68
2022/04/22 12:28:07;;;;;;;15.05;12.90;;;18.90;68.60;;;;;;5074083;28;20089;-68
2022/04/22 12:30:42;;;;;;;15.93;12.35;;;19.00;67.80;;;;;;5073346;28;20040;-69
2022/04/22 12:33:17;;;;;;;16.95;13.52;;;18.90;69.00;;;;;;5074103;28;20446;-68
2022/04/22 12:35:45;;;;;;;15.70;12.32;;;18.70;67.70;;;;;;5074048;28;20057;-68
2022/04/22 12:38:13;;;;;;;14.98;11.88;;;18.80;67.90;;;;;;5074323;28;20047;-68
2022/04/22 12:40:47;;;;;;;13.35;11.95;;;18.90;68.20;;;;;;5073027;28;20698;-69
2022/04/22 12:43:31;;;;;;;13.02;11.10;;;19.10;67.60;;;;;;5056279;28;20025;-68
2022/04/22 12:52:11;;;;;;;14.63;11.70;;;20.30;85.70;;;;;;5073778;28;20048;-68
2022/04/22 12:54:38;;;;;;;13.02;11.07;;;20.20;81.40;;;;;;5073288;28;20090;-67
2022/04/22 12:57:07;;;;;;;11.63;10.45;;;20.10;79.80;;;;;;5073370;28;20527;-68
2022/04/22 12:59:46;;;;;;;12.05;9.85;;;20.50;64.10;;;;;;5072904;28;20039;-68
2022/04/22 13:02:14;;;;;;;12.37;10.53;;;20.90;62.40;;;;;;5073657;28;20056;-68
2022/04/22 13:05:18;;;;;;;12.77;10.02;;;21.20;62.60;;;;;;5072516;28;20079;-68
2022/04/22 13:07:51;;;;;;;12.35;10.95;;;21.50;60.70;;;;;;5070829;28;20058;-68
2022/04/22 13:10:22;;;;;;;11.93;9.43;;;21.50;60.30;;;;;;5073575;28;20032;-68
2022/04/22 13:12:48;;;;;;;12.13;8.40;;;21.40;61.10;;;;;;5073204;28;20024;-68
2022/04/22 13:15:18;;;;;;;9.93;8.93;;;21.40;61.10;;;;;;5073276;28;20108;-68
2022/04/22 13:17:45;;;;;;;12.40;9.38;;;21.10;60.10;;;;;;5072537;28;20025;-68
2022/04/22 13:20:17;;;;;;;9.18;8.25;;;20.80;61.00;;;;;;5073107;28;20470;-68
2022/04/22 13:22:44;;;;;;;11.30;9.68;;;20.30;62.20;;;;;;5072294;28;20554;-68
2022/04/22 13:25:11;;;;;;;13.95;10.10;;;20.30;62.10;;;;;;5072777;28;20082;-68
2022/04/22 13:27:37;;;;;;;13.77;10.43;;;20.50;62.00;;;;;;5071862;28;20043;-68
2022/04/22 13:30:04;;;;;;;12.68;9.07;;;20.70;61.40;;;;;;5073452;28;20125;-68
2022/04/22 13:32:30;;;;;;;12.73;8.30;;;21.00;62.30;;;;;;5071802;28;20394;-69
2022/04/22 13:34:55;;;;;;;7.93;6.80;;;21.60;64.60;;;;;;5071696;28;20031;-68
2022/04/22 13:37:21;;;;;;;10.55;6.95;;;21.80;83.10;;;;;;5071969;28;20055;-69
2022/04/22 13:39:47;;;;;;;23.55;7.82;;;21.90;73.10;;;;;;5072440;28;20027;-68
2022/04/22 13:42:12;;;;;;;9.35;8.27;;;21.80;59.60;;;;;;5066469;28;20122;-69
2022/04/22 13:52:51;;;;;;;13.38;9.25;;;21.00;65.60;;;;;;5055664;28;20047;-69
2022/04/22 13:55:17;;;;;;;11.05;9.02;;;21.00;65.50;;;;;;5072640;28;20029;-68